Time;durP1;ratioP1;P1;durP2;ratioP2;P2;SDS_P1;SDS_P2;PMS_P1;PMS_P2;Temp;Humidity;BMP_temperature;BMP_pressure;BME280_temperature;BME280_humidity;BME280_pressure;Samples;Min_cycle;Max_cycle;Signal;HPM_P1;HPM_P2
2022/01/14 00:02:14;;;;;;;49.80;15.95;;;5.60;99.90;;;;;;5115848;27;20079;-82
2022/01/14 00:04:40;;;;;;;47.40;16.17;;;5.50;99.90;;;;;;5102484;27;20050;-82
2022/01/14 00:07:06;;;;;;;41.20;14.55;;;5.40;99.90;;;;;;5121368;27;20047;-82
2022/01/14 00:09:34;;;;;;;39.55;15.13;;;5.40;99.90;;;;;;5137595;27;20038;-85
2022/01/14 00:12:03;;;;;;;31.98;14.20;;;5.40;99.90;;;;;;5121325;27;20042;-82
2022/01/14 00:14:39;;;;;;;47.13;13.90;;;5.40;99.90;;;;;;5088479;27;20129;-82
2022/01/14 00:17:10;;;;;;;38.90;14.20;;;5.40;99.90;;;;;;5122352;27;20046;-82
2022/01/14 00:19:37;;;;;;;43.70;14.52;;;5.40;99.90;;;;;;5138320;27;20038;-82
2022/01/14 00:22:10;;;;;;;40.15;13.57;;;5.30;99.90;;;;;;5137421;27;20046;-84
2022/01/14 00:33:00;;;;;;;51.30;14.88;;;5.30;99.90;;;;;;5133863;27;20058;-82
2022/01/14 00:35:25;;;;;;;38.38;14.80;;;5.40;99.90;;;;;;5137331;27;20050;-81
2022/01/14 00:37:51;;;;;;;39.80;15.05;;;5.50;99.90;;;;;;5100148;27;20120;-82
2022/01/14 00:40:17;;;;;;;42.45;16.67;;;5.50;99.90;;;;;;5132568;27;20042;-82
2022/01/14 00:42:43;;;;;;;37.90;15.63;;;5.60;99.90;;;;;;5137843;27;20054;-83
2022/01/14 00:45:11;;;;;;;51.95;17.58;;;5.60;99.90;;;;;;5137517;27;20052;-81
2022/01/14 00:47:37;;;;;;;43.00;16.95;;;5.70;99.90;;;;;;5103816;27;20039;-86
2022/01/14 00:50:14;;;;;;;41.50;15.93;;;5.70;99.90;;;;;;5120258;27;20086;-82
2022/01/14 00:52:42;;;;;;;48.10;17.25;;;5.80;99.90;;;;;;5137086;27;20054;-82
2022/01/14 00:55:12;;;;;;;47.03;17.42;;;5.80;99.90;;;;;;5115555;27;20050;-82
2022/01/14 01:00:24;;;;;;;40.97;15.40;;;5.90;99.90;;;;;;5101140;27;20047;-81
2022/01/14 01:02:50;;;;;;;39.90;15.85;;;5.90;99.90;;;;;;5099919;27;20047;-81
2022/01/14 01:05:18;;;;;;;32.63;14.82;;;6.00;99.90;;;;;;5096107;27;20403;-83
2022/01/14 01:07:49;;;;;;;51.95;16.80;;;5.90;99.90;;;;;;5136218;27;20101;-81
2022/01/14 01:10:17;;;;;;;46.42;15.65;;;6.00;99.90;;;;;;5120050;27;20121;-81
2022/01/14 01:12:52;;;;;;;40.58;15.93;;;6.00;99.90;;;;;;5102729;27;20099;-82
2022/01/14 01:15:19;;;;;;;47.25;17.67;;;6.00;99.90;;;;;;5090122;27;20043;-82
2022/01/14 01:17:45;;;;;;;43.58;16.17;;;6.10;99.90;;;;;;5082839;27;20079;-82
2022/01/14 01:20:13;;;;;;;38.70;16.35;;;6.00;99.90;;;;;;5105149;27;20049;-82
2022/01/14 01:22:40;;;;;;;39.92;15.73;;;6.10;99.90;;;;;;5119652;27;20042;-82
2022/01/14 01:25:08;;;;;;;45.65;16.55;;;6.10;99.90;;;;;;5119372;27;20047;-81
2022/01/14 01:27:38;;;;;;;39.28;17.40;;;6.10;99.90;;;;;;5120486;27;20049;-82
2022/01/14 01:30:27;;;;;;;40.08;17.35;;;6.20;99.90;;;;;;5103012;27;20060;-82
2022/01/14 01:32:53;;;;;;;36.08;16.73;;;6.20;99.90;;;;;;5136211;27;20383;-82
2022/01/14 01:35:20;;;;;;;38.75;17.27;;;6.20;99.90;;;;;;5102609;27;20091;-82
2022/01/14 01:37:45;;;;;;;29.80;14.77;;;6.20;99.90;;;;;;5115740;27;20083;-83
2022/01/14 01:40:14;;;;;;;36.30;17.23;;;6.20;99.90;;;;;;5108212;27;20522;-81
2022/01/14 01:42:42;;;;;;;34.50;18.23;;;6.20;99.90;;;;;;5082231;27;20051;-82
2022/01/14 01:45:11;;;;;;;34.92;17.02;;;6.10;99.90;;;;;;5111474;27;20413;-82
2022/01/14 01:47:38;;;;;;;40.72;17.98;;;6.20;99.90;;;;;;5135878;27;20082;-82
2022/01/14 01:50:12;;;;;;;38.65;16.13;;;6.20;99.90;;;;;;5116995;27;20485;-82
2022/01/14 01:52:37;;;;;;;44.55;19.05;;;6.20;99.90;;;;;;5121837;27;20485;-83
2022/01/14 01:55:04;;;;;;;34.40;17.00;;;6.20;99.90;;;;;;5118173;27;20059;-82
2022/01/14 01:57:30;;;;;;;39.63;17.73;;;6.20;99.90;;;;;;5135755;27;20043;-82
2022/01/14 01:59:56;;;;;;;42.53;18.52;;;6.20;99.90;;;;;;5133335;27;20121;-82
2022/01/14 02:02:22;;;;;;;35.92;17.33;;;6.20;99.90;;;;;;5098785;27;20066;-82
2022/01/14 02:04:47;;;;;;;40.20;17.73;;;6.20;99.90;;;;;;5116477;27;20042;-82
2022/01/14 02:07:14;;;;;;;48.15;17.80;;;6.20;99.90;;;;;;5119258;27;20048;-82
2022/01/14 02:09:39;;;;;;;43.40;17.45;;;6.30;99.90;;;;;;5136246;27;20074;-82
2022/01/14 02:12:09;;;;;;;39.85;16.52;;;6.20;99.90;;;;;;5102433;27;20074;-82
2022/01/14 02:22:08;;;;;;;30.02;14.85;;;6.30;99.90;;;;;;5135904;27;20096;-82
2022/01/14 02:22:54;;;;;;;33.38;14.60;;;6.40;99.90;;;;;;5136115;27;20459;-82
2022/01/14 02:25:31;;;;;;;31.27;14.15;;;6.40;99.90;;;;;;5118444;27;20070;-82
2022/01/14 02:27:58;;;;;;;;;;;6.40;99.90;;;;;;5117607;27;20567;-82
2022/01/14 02:30:25;;;;;;;33.03;13.40;;;6.40;99.90;;;;;;5119031;27;19926;-82
2022/01/14 02:32:51;;;;;;;32.28;13.52;;;6.50;99.90;;;;;;5102480;27;20436;-82
2022/01/14 02:35:18;;;;;;;25.27;12.60;;;6.40;99.90;;;;;;5081652;28;20050;-81
2022/01/14 02:37:43;;;;;;;29.20;13.95;;;6.40;99.90;;;;;;5098543;28;20135;-81
2022/01/14 02:40:11;;;;;;;37.92;15.80;;;6.40;99.90;;;;;;5111674;27;20125;-81
2022/01/14 02:42:36;;;;;;;43.47;14.57;;;6.40;99.90;;;;;;5119203;27;20062;-81
2022/01/14 02:45:06;;;;;;;38.72;14.32;;;6.30;99.90;;;;;;5118323;27;20387;-81
2022/01/14 02:47:32;;;;;;;29.85;14.15;;;6.40;99.90;;;;;;5136420;27;20118;-81
2022/01/14 02:49:58;;;;;;;29.35;13.65;;;6.40;99.90;;;;;;5101339;27;20137;-81
2022/01/14 02:55:16;;;;;;;32.20;15.23;;;6.30;99.90;;;;;;5135952;27;20054;-81
2022/01/14 02:57:48;;;;;;;47.63;16.05;;;6.30;99.90;;;;;;5098798;28;20043;-81
2022/01/14 03:00:16;;;;;;;36.33;14.68;;;6.30;99.90;;;;;;5110901;27;20062;-81
2022/01/14 03:02:43;;;;;;;29.40;14.55;;;6.30;99.90;;;;;;5116381;27;20051;-81
2022/01/14 03:05:10;;;;;;;30.67;14.10;;;6.20;99.90;;;;;;5135457;27;20039;-81
2022/01/14 03:07:37;;;;;;;37.03;15.27;;;6.30;99.90;;;;;;5134729;27;20103;-83
2022/01/14 03:10:04;;;;;;;33.08;15.00;;;6.40;99.90;;;;;;5134495;27;20383;-81
2022/01/14 03:12:30;;;;;;;32.83;14.55;;;6.30;99.90;;;;;;5114839;28;20046;-82
2022/01/14 03:14:55;;;;;;;31.42;14.77;;;6.30;99.90;;;;;;5101221;27;20046;-81
2022/01/14 03:17:21;;;;;;;33.58;15.55;;;6.40;99.90;;;;;;5138911;27;20107;-83
2022/01/14 03:19:48;;;;;;;42.67;15.88;;;6.30;99.90;;;;;;5105484;27;20042;-81
2022/01/14 03:22:25;;;;;;;30.10;15.55;;;6.30;99.90;;;;;;5122433;27;20043;-81
2022/01/14 03:27:16;;;;;;;38.20;16.45;;;6.30;99.90;;;;;;5122221;27;20041;-82
2022/01/14 03:29:42;;;;;;;37.78;16.40;;;6.30;99.90;;;;;;5122275;27;20050;-81
2022/01/14 03:32:08;;;;;;;35.28;16.00;;;6.30;99.90;;;;;;5104553;27;20038;-81
2022/01/14 03:34:34;;;;;;;33.83;16.05;;;6.30;99.90;;;;;;5121691;27;20547;-80
2022/01/14 03:37:00;;;;;;;38.03;16.08;;;6.30;99.90;;;;;;5139014;27;20046;-81
2022/01/14 03:39:26;;;;;;;24.83;13.95;;;6.20;99.90;;;;;;5121737;27;20069;-81
2022/01/14 03:41:52;;;;;;;33.50;15.32;;;6.30;99.90;;;;;;5139264;27;20447;-81
2022/01/14 03:44:18;;;;;;;28.80;13.98;;;6.20;99.90;;;;;;5138520;27;20047;-81
2022/01/14 03:46:44;;;;;;;32.22;14.75;;;6.30;99.90;;;;;;5121969;27;20042;-81
2022/01/14 03:49:10;;;;;;;36.33;16.58;;;6.30;99.90;;;;;;5138503;27;20497;-81
2022/01/14 03:51:36;;;;;;;38.90;14.60;;;6.20;99.90;;;;;;5138405;27;20054;-81
2022/01/14 03:54:02;;;;;;;31.52;14.57;;;6.30;99.90;;;;;;5104899;27;20039;-81
2022/01/14 03:56:28;;;;;;;35.55;15.57;;;6.20;99.90;;;;;;5088002;27;20038;-81
2022/01/14 03:58:54;;;;;;;35.55;16.27;;;6.20;99.90;;;;;;5104343;27;20043;-81
2022/01/14 04:01:20;;;;;;;32.55;15.25;;;6.20;99.90;;;;;;5096075;27;20039;-81
2022/01/14 04:03:48;;;;;;;37.03;15.00;;;6.20;99.90;;;;;;5119437;27;20391;-81
2022/01/14 04:06:15;;;;;;;38.33;14.98;;;6.20;99.90;;;;;;5137202;27;20047;-80
2022/01/14 04:08:41;;;;;;;38.95;15.68;;;6.20;99.90;;;;;;5138754;27;20046;-81
2022/01/14 04:11:08;;;;;;;35.88;15.68;;;6.10;99.90;;;;;;5116830;27;20544;-81
2022/01/14 04:16:14;;;;;;;31.92;14.68;;;6.10;99.90;;;;;;5132984;27;20038;-81
2022/01/14 04:18:40;;;;;;;37.85;16.25;;;6.10;99.90;;;;;;5137522;27;20050;-82
2022/01/14 04:21:06;;;;;;;37.10;16.02;;;6.10;99.90;;;;;;5102327;27;20139;-82
2022/01/14 04:23:32;;;;;;;36.72;16.52;;;6.10;99.90;;;;;;5117378;27;20045;-82
2022/01/14 04:25:58;;;;;;;33.83;16.13;;;6.00;99.90;;;;;;5103404;27;20045;-82
2022/01/14 04:28:30;;;;;;;36.67;15.55;;;6.00;99.90;;;;;;5102169;27;20137;-81
2022/01/14 04:30:56;;;;;;;38.28;15.85;;;6.10;99.90;;;;;;5120948;27;20410;-81
2022/01/14 04:33:27;;;;;;;28.35;14.93;;;6.10;99.90;;;;;;5120382;27;20047;-82
2022/01/14 04:35:54;;;;;;;35.45;15.23;;;6.20;99.90;;;;;;5119214;27;20054;-81
2022/01/14 04:38:21;;;;;;;31.92;14.65;;;6.10;99.90;;;;;;5106351;27;20047;-81
2022/01/14 04:40:46;;;;;;;38.92;16.05;;;6.20;99.90;;;;;;5133091;27;20046;-81
2022/01/14 04:43:16;;;;;;;45.70;15.80;;;6.10;99.90;;;;;;5117379;27;20047;-81
2022/01/14 04:45:54;;;;;;;39.10;15.93;;;6.20;99.90;;;;;;5103724;27;20039;-81
2022/01/14 04:48:20;;;;;;;35.63;16.50;;;6.10;99.90;;;;;;5105572;27;20061;-81
2022/01/14 04:50:46;;;;;;;30.45;15.95;;;6.10;99.90;;;;;;5097716;27;20047;-83
2022/01/14 04:53:13;;;;;;;33.33;15.65;;;6.10;99.90;;;;;;5083202;27;20047;-81
2022/01/14 04:55:39;;;;;;;33.50;16.00;;;6.10;99.90;;;;;;5137364;27;20137;-81
2022/01/14 04:58:05;;;;;;;31.58;14.77;;;6.10;99.90;;;;;;5086799;27;20134;-81
2022/01/14 05:00:31;;;;;;;34.47;14.38;;;6.10;99.90;;;;;;5119193;27;20046;-81
2022/01/14 05:02:56;;;;;;;35.33;13.80;;;6.10;99.90;;;;;;5137675;27;20103;-81
2022/01/14 05:05:25;;;;;;;32.60;12.73;;;6.10;99.90;;;;;;5136265;27;20035;-81
2022/01/14 05:07:52;;;;;;;36.88;13.93;;;6.00;99.90;;;;;;5135286;27;20091;-81
2022/01/14 05:13:11;;;;;;;34.05;12.70;;;6.10;99.90;;;;;;5105736;27;20047;-81
2022/01/14 05:15:37;;;;;;;37.13;13.63;;;6.10;99.90;;;;;;5119893;27;20483;-81
2022/01/14 05:18:03;;;;;;;35.28;14.13;;;6.10;99.90;;;;;;5116929;27;20058;-81
2022/01/14 05:20:28;;;;;;;37.22;13.82;;;6.10;99.90;;;;;;5085435;27;20062;-81
2022/01/14 05:22:54;;;;;;;34.05;13.77;;;6.10;99.90;;;;;;5119738;27;20034;-81
2022/01/14 05:25:20;;;;;;;31.55;13.18;;;6.10;99.90;;;;;;5118751;27;20478;-81
2022/01/14 05:27:46;;;;;;;32.33;12.25;;;6.10;99.90;;;;;;5119409;27;20050;-82
2022/01/14 05:30:13;;;;;;;35.10;12.68;;;6.20;99.90;;;;;;5085900;27;20031;-82
2022/01/14 05:32:46;;;;;;;39.17;12.68;;;6.10;99.90;;;;;;5102982;27;20043;-81
2022/01/14 05:35:13;;;;;;;39.85;12.65;;;6.20;99.90;;;;;;5136806;27;20055;-82
2022/01/14 05:37:38;;;;;;;32.63;11.88;;;6.20;99.90;;;;;;5119158;27;20043;-82
2022/01/14 05:40:05;;;;;;;35.33;13.32;;;6.20;99.90;;;;;;5118555;27;20054;-81
2022/01/14 05:42:33;;;;;;;36.50;13.30;;;6.10;99.90;;;;;;5114877;27;20066;-82
2022/01/14 05:45:00;;;;;;;36.17;13.23;;;6.10;99.90;;;;;;5110749;27;20083;-81
2022/01/14 05:47:26;;;;;;;32.65;11.43;;;6.10;99.90;;;;;;5119922;27;20083;-81
2022/01/14 05:49:51;;;;;;;36.95;11.10;;;6.20;99.90;;;;;;5136028;27;20043;-82
2022/01/14 05:52:17;;;;;;;30.70;10.60;;;6.20;99.90;;;;;;5102396;27;20046;-81
2022/01/14 05:54:43;;;;;;;30.60;10.43;;;6.20;99.90;;;;;;5099295;27;20086;-81
2022/01/14 05:57:09;;;;;;;27.50;9.25;;;6.20;99.90;;;;;;5099132;28;20043;-81
2022/01/14 05:59:35;;;;;;;34.50;10.65;;;6.10;99.90;;;;;;5069514;27;20145;-82
2022/01/14 06:02:02;;;;;;;26.08;9.65;;;6.20;99.90;;;;;;5095212;27;20042;-81
2022/01/14 06:04:28;;;;;;;28.45;8.77;;;6.20;99.90;;;;;;5097557;27;20035;-81
2022/01/14 06:06:54;;;;;;;35.20;9.57;;;6.20;99.90;;;;;;5116225;28;20139;-81
2022/01/14 06:09:19;;;;;;;31.60;9.35;;;6.10;99.90;;;;;;5102220;27;20119;-81
2022/01/14 06:11:45;;;;;;;29.13;8.65;;;6.20;99.90;;;;;;5136519;27;20146;-81
2022/01/14 06:14:11;;;;;;;28.15;9.23;;;6.20;99.90;;;;;;5099144;27;20047;-81
2022/01/14 06:16:36;;;;;;;35.55;7.63;;;6.20;99.90;;;;;;5098843;28;20051;-81
2022/01/14 06:19:02;;;;;;;30.77;8.07;;;6.20;99.90;;;;;;5082505;28;20071;-82
2022/01/14 06:21:28;;;;;;;32.38;7.20;;;6.20;99.90;;;;;;5096879;27;20466;-81
2022/01/14 06:23:54;;;;;;;30.08;7.13;;;6.20;99.90;;;;;;5119345;27;20467;-81
2022/01/14 06:26:20;;;;;;;29.60;7.22;;;6.30;99.90;;;;;;5098420;28;20075;-81
2022/01/14 06:28:46;;;;;;;21.90;6.45;;;6.20;99.90;;;;;;5065502;28;20140;-81
2022/01/14 06:31:12;;;;;;;24.77;6.75;;;6.20;99.90;;;;;;5097380;27;20172;-81
2022/01/14 06:33:38;;;;;;;24.85;7.38;;;6.30;99.90;;;;;;5135927;27;20099;-82
2022/01/14 06:36:04;;;;;;;24.77;7.30;;;6.20;99.90;;;;;;5119340;27;20042;-81
2022/01/14 06:38:29;;;;;;;26.20;7.18;;;6.30;99.90;;;;;;5102233;27;20043;-81
2022/01/14 06:40:55;;;;;;;27.52;7.35;;;6.40;99.90;;;;;;5097396;28;20051;-81
2022/01/14 06:43:21;;;;;;;26.80;6.75;;;6.30;99.90;;;;;;5098479;27;20138;-83
2022/01/14 06:45:46;;;;;;;27.40;6.53;;;6.30;99.90;;;;;;5118830;27;20035;-81
2022/01/14 06:48:12;;;;;;;27.70;6.97;;;6.40;99.90;;;;;;5135651;27;20042;-81
2022/01/14 06:50:38;;;;;;;20.38;6.20;;;6.40;99.90;;;;;;5101637;27;20078;-81
2022/01/14 06:53:04;;;;;;;34.25;7.45;;;6.40;99.90;;;;;;5139864;27;20126;-81
2022/01/14 06:55:29;;;;;;;28.63;5.90;;;6.40;99.90;;;;;;5102237;27;20126;-81
2022/01/14 06:57:55;;;;;;;28.35;7.15;;;6.40;99.90;;;;;;5085730;27;20179;-81
2022/01/14 07:00:21;;;;;;;29.45;6.30;;;6.40;99.90;;;;;;5113668;27;20047;-84
2022/01/14 07:02:48;;;;;;;19.30;5.68;;;6.40;99.90;;;;;;5122401;27;20038;-80
2022/01/14 07:05:14;;;;;;;17.02;4.97;;;6.40;99.90;;;;;;5121497;27;20108;-80
2022/01/14 07:07:40;;;;;;;14.85;4.95;;;6.40;99.90;;;;;;5138582;27;20047;-80
2022/01/14 07:10:07;;;;;;;21.23;6.30;;;6.50;99.90;;;;;;5137927;27;20047;-81
2022/01/14 07:12:38;;;;;;;20.38;5.50;;;6.50;99.90;;;;;;5108618;27;20038;-83
2022/01/14 07:15:08;;;;;;;19.63;5.45;;;6.50;99.90;;;;;;5121967;27;20049;-80
2022/01/14 07:17:34;;;;;;;22.77;5.68;;;6.40;99.90;;;;;;5121993;27;20555;-80
2022/01/14 07:20:06;;;;;;;22.42;4.38;;;6.50;99.90;;;;;;5121993;27;20050;-81
2022/01/14 07:22:31;;;;;;;23.55;5.65;;;6.50;99.90;;;;;;5122388;27;20133;-81
2022/01/14 07:24:58;;;;;;;25.05;5.28;;;6.50;99.90;;;;;;5122174;27;20516;-81
2022/01/14 07:27:24;;;;;;;25.83;5.30;;;6.50;99.90;;;;;;5139228;27;20175;-85
2022/01/14 07:29:50;;;;;;;20.27;5.55;;;6.50;99.90;;;;;;5122179;27;20053;-81
2022/01/14 07:32:16;;;;;;;29.33;5.45;;;6.50;99.90;;;;;;5139213;27;20030;-80
2022/01/14 07:34:42;;;;;;;19.10;5.28;;;6.60;99.90;;;;;;5075697;27;20498;-80
2022/01/14 07:37:08;;;;;;;27.00;5.35;;;6.50;99.90;;;;;;5138006;27;20050;-82
2022/01/14 07:39:34;;;;;;;21.55;5.38;;;6.50;99.90;;;;;;5132356;27;20399;-82
2022/01/14 07:42:00;;;;;;;27.38;5.65;;;6.50;99.90;;;;;;5139011;27;20500;-81
2022/01/14 07:44:25;;;;;;;25.60;4.97;;;6.40;99.90;;;;;;5121804;27;20115;-85
2022/01/14 07:46:51;;;;;;;22.98;4.63;;;6.50;99.90;;;;;;5121285;27;20057;-82
2022/01/14 07:49:17;;;;;;;16.95;4.85;;;6.40;99.90;;;;;;5121023;27;20035;-81
2022/01/14 07:51:43;;;;;;;20.67;4.63;;;6.40;99.90;;;;;;5119808;27;20055;-82
2022/01/14 07:54:09;;;;;;;17.70;4.38;;;6.40;99.90;;;;;;5120231;27;20070;-81
2022/01/14 07:56:37;;;;;;;15.45;4.55;;;6.40;99.90;;;;;;5120524;27;20444;-81
2022/01/14 07:59:05;;;;;;;22.50;4.68;;;6.50;99.90;;;;;;5121113;27;20107;-81
2022/01/14 08:01:33;;;;;;;23.75;4.32;;;6.50;99.90;;;;;;5138044;27;20125;-82
2022/01/14 08:03:59;;;;;;;22.25;4.10;;;6.50;99.90;;;;;;5103929;27;20130;-81
2022/01/14 08:06:26;;;;;;;26.55;4.80;;;6.40;99.90;;;;;;5121914;27;20043;-80
2022/01/14 08:08:51;;;;;;;12.73;3.40;;;6.50;99.90;;;;;;5121694;27;20041;-80
2022/01/14 08:11:17;;;;;;;22.27;3.55;;;6.50;99.90;;;;;;5087789;27;20051;-78
2022/01/14 08:13:43;;;;;;;21.88;3.60;;;6.50;99.90;;;;;;5118271;27;20046;-81
2022/01/14 08:16:08;;;;;;;15.48;3.55;;;6.50;99.90;;;;;;5100154;27;20047;-82
2022/01/14 08:18:34;;;;;;;22.45;4.40;;;6.50;99.90;;;;;;5083846;27;20495;-79
2022/01/14 08:21:00;;;;;;;19.85;3.88;;;6.60;99.90;;;;;;5074480;27;20042;-77
2022/01/14 08:23:25;;;;;;;27.83;4.57;;;6.50;99.90;;;;;;5117593;27;20074;-79
2022/01/14 08:25:53;;;;;;;19.50;4.07;;;6.50;99.90;;;;;;5096229;27;20043;-78
2022/01/14 08:28:22;;;;;;;24.40;4.15;;;6.50;99.90;;;;;;5138574;27;20096;-78
2022/01/14 08:30:48;;;;;;;18.40;4.53;;;6.60;99.90;;;;;;5087081;27;20053;-80
2022/01/14 08:33:14;;;;;;;17.77;3.30;;;6.50;99.90;;;;;;5137794;27;20039;-78
2022/01/14 08:35:40;;;;;;;24.42;4.20;;;6.50;99.90;;;;;;5138200;27;20051;-78
2022/01/14 08:38:06;;;;;;;19.88;4.63;;;6.50;99.90;;;;;;5138259;27;20478;-78
2022/01/14 08:40:33;;;;;;;20.52;4.43;;;6.60;99.90;;;;;;5104130;27;20043;-85
2022/01/14 08:42:59;;;;;;;18.70;4.00;;;6.60;99.90;;;;;;5120743;27;20046;-78
2022/01/14 08:45:25;;;;;;;18.23;3.67;;;6.60;99.90;;;;;;5100187;27;20039;-78
2022/01/14 08:47:53;;;;;;;21.17;3.60;;;6.60;99.90;;;;;;5117172;27;20051;-79
2022/01/14 08:50:25;;;;;;;23.45;4.00;;;6.60;99.90;;;;;;5112858;27;20051;-81
2022/01/14 08:52:51;;;;;;;18.00;3.92;;;6.70;99.90;;;;;;5103865;27;20043;-82
2022/01/14 08:55:19;;;;;;;20.55;4.00;;;6.60;99.90;;;;;;5137314;27;20057;-82
2022/01/14 08:57:45;;;;;;;17.95;3.67;;;6.70;99.90;;;;;;5137197;27;20046;-82
2022/01/14 09:00:13;;;;;;;18.63;4.93;;;6.70;99.90;;;;;;5087023;27;20054;-81
2022/01/14 09:02:39;;;;;;;19.15;3.05;;;6.70;99.90;;;;;;5120336;27;20050;-82
2022/01/14 09:05:05;;;;;;;22.60;3.20;;;6.80;99.90;;;;;;5137320;27;20049;-82
2022/01/14 09:07:31;;;;;;;20.40;3.58;;;6.80;99.90;;;;;;5137603;27;20056;-82
2022/01/14 09:09:57;;;;;;;23.42;3.90;;;6.80;99.90;;;;;;5116164;27;20138;-82
2022/01/14 09:12:23;;;;;;;12.65;3.50;;;6.80;99.90;;;;;;5115807;27;20043;-82
2022/01/14 09:14:49;;;;;;;21.40;3.50;;;6.80;99.90;;;;;;5120034;27;20050;-82
2022/01/14 09:17:17;;;;;;;20.75;3.65;;;6.80;99.90;;;;;;5137388;27;20051;-82
2022/01/14 09:19:43;;;;;;;22.15;4.13;;;6.80;99.90;;;;;;5116389;27;20498;-82
2022/01/14 09:22:10;;;;;;;15.60;3.97;;;6.90;99.90;;;;;;5083025;27;20392;-81
2022/01/14 09:24:36;;;;;;;14.63;3.28;;;6.80;99.90;;;;;;5082765;27;20054;-81
2022/01/14 09:27:02;;;;;;;17.73;3.58;;;6.90;99.90;;;;;;5082793;27;20039;-82
2022/01/14 09:29:29;;;;;;;21.38;3.92;;;6.90;99.90;;;;;;5110520;27;20371;-82
2022/01/14 09:31:54;;;;;;;18.73;4.03;;;6.90;99.90;;;;;;5118452;27;20398;-82
2022/01/14 09:34:20;;;;;;;20.63;3.67;;;6.90;99.90;;;;;;5119222;27;20047;-82
2022/01/14 09:36:46;;;;;;;23.35;3.95;;;7.00;99.90;;;;;;5136398;27;20061;-82
2022/01/14 09:39:12;;;;;;;23.48;5.07;;;7.00;99.90;;;;;;5136612;27;20066;-82
2022/01/14 09:41:38;;;;;;;28.17;4.30;;;7.00;99.90;;;;;;5119570;27;20383;-82
2022/01/14 09:44:05;;;;;;;20.45;4.47;;;7.00;99.90;;;;;;5136983;27;20034;-82
2022/01/14 09:46:31;;;;;;;15.50;3.83;;;7.00;99.90;;;;;;5102643;27;20129;-84
2022/01/14 09:48:57;;;;;;;19.27;4.10;;;7.10;99.90;;;;;;5119620;27;20126;-82
2022/01/14 09:51:23;;;;;;;20.25;3.95;;;7.10;99.90;;;;;;5132528;27;20053;-82
2022/01/14 09:53:49;;;;;;;20.38;3.80;;;7.10;99.90;;;;;;5097399;27;20047;-82
2022/01/14 09:56:20;;;;;;;21.88;4.07;;;7.10;99.90;;;;;;5116173;27;20471;-82
2022/01/14 09:58:47;;;;;;;19.95;4.35;;;7.10;99.90;;;;;;5116189;27;20058;-82
2022/01/14 10:01:22;;;;;;;21.77;3.88;;;7.20;99.90;;;;;;5116231;27;20141;-81
2022/01/14 10:03:52;;;;;;;20.15;3.78;;;7.20;99.90;;;;;;5132385;27;20096;-81
2022/01/14 10:06:38;;;;;;;21.90;4.13;;;7.30;99.90;;;;;;5133082;27;20047;-82
2022/01/14 10:09:08;;;;;;;17.17;4.57;;;7.30;99.90;;;;;;5132108;27;20047;-82
2022/01/14 10:11:35;;;;;;;21.50;4.45;;;7.30;99.90;;;;;;5133229;27;20075;-82
2022/01/14 10:14:13;;;;;;;29.67;4.93;;;7.30;99.90;;;;;;5131850;27;20051;-83
2022/01/14 10:16:42;;;;;;;25.00;4.47;;;7.30;99.90;;;;;;5114677;28;20043;-81
2022/01/14 10:19:21;;;;;;;22.70;4.30;;;7.30;99.90;;;;;;5115327;28;20058;-81
2022/01/14 10:21:47;;;;;;;20.58;3.92;;;7.30;99.90;;;;;;5115504;28;20361;-83
2022/01/14 10:24:13;;;;;;;22.73;4.15;;;7.40;99.90;;;;;;5118793;28;20039;-82
2022/01/14 10:26:50;;;;;;;22.80;4.07;;;7.30;99.90;;;;;;5117616;27;20051;-81
2022/01/14 10:29:30;;;;;;;23.50;5.20;;;7.40;99.90;;;;;;5119294;27;20066;-85
2022/01/14 10:31:56;;;;;;;26.55;5.35;;;7.40;99.90;;;;;;5136776;27;20487;-82
2022/01/14 10:34:22;;;;;;;17.20;3.80;;;7.40;99.90;;;;;;5119438;27;20122;-84
2022/01/14 10:36:50;;;;;;;21.17;4.15;;;7.40;99.90;;;;;;5119260;27;20100;-82
2022/01/14 10:39:25;;;;;;;18.20;4.22;;;7.40;99.90;;;;;;5116176;28;20507;-81
2022/01/14 10:41:52;;;;;;;26.02;3.90;;;7.40;99.90;;;;;;5115667;28;20046;-82
2022/01/14 10:44:28;;;;;;;17.65;3.95;;;7.40;99.90;;;;;;5117525;27;20399;-80
2022/01/14 10:47:10;;;;;;;;;;;7.40;99.90;;;;;;5143945;27;20096;-80
2022/01/14 10:49:37;;;;;;;20.20;3.90;;;7.40;99.90;;;;;;5100420;27;19923;-82
2022/01/14 10:52:15;;;;;;;21.23;3.78;;;7.30;99.90;;;;;;5119044;27;20055;-81
2022/01/14 10:54:48;;;;;;;21.92;4.95;;;7.40;99.90;;;;;;5115635;28;20381;-83
2022/01/14 10:57:25;;;;;;;24.73;4.18;;;7.40;99.90;;;;;;5134357;27;20055;-81
2022/01/14 10:59:56;;;;;;;25.10;4.38;;;7.40;99.90;;;;;;5099722;28;20476;-87
2022/01/14 11:02:34;;;;;;;21.15;4.13;;;7.40;99.90;;;;;;5114199;27;20047;-81
2022/01/14 11:05:12;;;;;;;23.15;4.50;;;7.40;99.90;;;;;;5109080;27;20399;-82
2022/01/14 11:07:38;;;;;;;22.48;4.10;;;7.40;99.90;;;;;;5113774;28;20046;-82
2022/01/14 11:10:26;;;;;;;21.25;4.53;;;7.40;99.90;;;;;;5107619;27;20058;-83
2022/01/14 11:12:54;;;;;;;21.00;4.45;;;7.40;99.90;;;;;;5117533;27;20108;-82
2022/01/14 11:15:22;;;;;;;18.80;4.10;;;7.50;99.90;;;;;;5117636;27;20422;-81
2022/01/14 11:17:51;;;;;;;24.38;4.30;;;7.50;99.90;;;;;;5096837;28;20500;-83
2022/01/14 11:20:26;;;;;;;25.42;4.78;;;7.50;99.90;;;;;;5098822;28;20054;-83
2022/01/14 11:25:41;;;;;;;32.20;5.85;;;7.60;99.90;;;;;;5100773;28;20507;-82
2022/01/14 11:28:08;;;;;;;18.20;4.38;;;7.60;99.90;;;;;;5122547;27;20047;-82
2022/01/14 11:30:37;;;;;;;24.88;4.40;;;7.60;99.90;;;;;;5117781;27;20436;-82
2022/01/14 11:33:04;;;;;;;20.98;4.78;;;7.60;99.90;;;;;;5134553;27;20047;-82
2022/01/14 11:35:31;;;;;;;25.00;4.55;;;7.60;99.90;;;;;;5118509;27;20038;-84
2022/01/14 11:37:57;;;;;;;26.73;4.38;;;7.70;99.90;;;;;;5109984;28;20055;-83
2022/01/14 11:40:24;;;;;;;20.58;3.92;;;7.70;99.90;;;;;;5122700;27;20486;-82
2022/01/14 11:43:00;;;;;;;21.73;4.30;;;7.70;99.90;;;;;;5111237;27;20043;-83
2022/01/14 11:45:44;;;;;;;23.58;4.25;;;7.70;99.90;;;;;;5100292;27;20134;-82
2022/01/14 11:48:38;;;;;;;21.77;4.20;;;7.70;99.90;;;;;;5122145;27;20047;-82
2022/01/14 11:51:09;;;;;;;29.30;4.97;;;7.70;99.90;;;;;;5117236;27;20061;-82
2022/01/14 11:53:53;;;;;;;34.08;5.40;;;7.80;99.90;;;;;;5135490;27;20086;-82
2022/01/14 11:56:31;;;;;;;30.50;4.72;;;7.70;99.90;;;;;;5118180;27;20047;-82
2022/01/14 11:59:37;;;;;;;28.38;4.40;;;7.80;99.90;;;;;;5134853;27;20043;-83
2022/01/14 12:02:27;;;;;;;28.05;4.10;;;7.80;99.90;;;;;;5030118;28;20179;-82
2022/01/14 12:05:08;;;;;;;24.85;4.60;;;7.80;99.90;;;;;;5035714;28;20103;-82
2022/01/14 12:08:02;;;;;;;27.85;4.72;;;7.90;99.90;;;;;;5071956;28;20512;-82
2022/01/14 12:10:39;;;;;;;25.48;5.20;;;7.90;99.90;;;;;;5115561;27;20043;-82
2022/01/14 12:16:09;;;;;;;27.52;4.70;;;7.90;99.90;;;;;;5122311;27;20181;-82
2022/01/14 12:18:56;;;;;;;28.20;5.40;;;7.90;99.90;;;;;;5108655;27;20561;-82
2022/01/14 12:21:37;;;;;;;;;;;7.90;99.90;;;;;;5117798;27;20376;-82
2022/01/14 12:24:18;;;;;;;27.35;5.00;;;7.90;99.90;;;;;;5117111;27;19923;-82
2022/01/14 12:27:04;;;;;;;24.48;4.97;;;7.90;99.90;;;;;;5117586;27;20439;-81
2022/01/14 12:29:35;;;;;;;26.27;4.60;;;8.00;99.90;;;;;;5117221;27;20043;-83
2022/01/14 12:32:06;;;;;;;30.10;4.55;;;8.00;99.90;;;;;;5134305;27;20225;-84
2022/01/14 12:34:35;;;;;;;31.48;4.57;;;8.00;99.90;;;;;;5129514;27;20039;-84
2022/01/14 12:37:01;;;;;;;31.88;5.45;;;8.00;99.90;;;;;;5107027;27;20392;-86
2022/01/14 12:39:28;;;;;;;28.73;5.50;;;8.00;99.90;;;;;;5112153;27;20046;-81
2022/01/14 12:41:55;;;;;;;21.63;4.50;;;8.00;99.90;;;;;;5110544;28;20047;-81
2022/01/14 12:44:22;;;;;;;26.70;6.05;;;8.00;99.90;;;;;;5096770;28;20062;-82
2022/01/14 12:46:58;;;;;;;32.88;5.75;;;8.00;99.90;;;;;;5110754;27;20047;-82
2022/01/14 12:49:46;;;;;;;32.97;5.88;;;8.00;99.90;;;;;;5130144;27;20476;-82
2022/01/14 12:52:23;;;;;;;34.53;5.55;;;8.00;99.90;;;;;;5094956;28;20142;-83
2022/01/14 12:54:48;;;;;;;32.08;5.45;;;8.00;99.90;;;;;;5113375;28;20130;-81
2022/01/14 12:57:19;;;;;;;34.88;5.63;;;8.00;99.90;;;;;;5076573;27;20135;-81
2022/01/14 12:59:47;;;;;;;27.65;4.95;;;8.00;99.90;;;;;;5116920;27;20050;-78
2022/01/14 13:02:24;;;;;;;36.88;5.25;;;8.00;99.90;;;;;;5116955;27;20089;-77
2022/01/14 13:04:59;;;;;;;34.15;5.95;;;8.00;99.90;;;;;;5115752;27;20051;-80
2022/01/14 13:07:25;;;;;;;25.27;4.72;;;8.00;99.90;;;;;;5132553;27;20051;-83
2022/01/14 13:09:52;;;;;;;28.13;5.25;;;8.00;99.90;;;;;;5125094;27;20051;-83
2022/01/14 13:12:21;;;;;;;32.22;5.85;;;8.00;99.90;;;;;;5115600;27;20046;-80
2022/01/14 13:14:53;;;;;;;42.08;6.18;;;7.90;99.90;;;;;;5115636;27;20429;-84
2022/01/14 13:17:27;;;;;;;39.90;6.13;;;7.90;99.90;;;;;;5115906;27;20395;-84
2022/01/14 13:20:08;;;;;;;31.80;4.80;;;7.90;99.90;;;;;;5101407;27;20484;-85
2022/01/14 13:22:35;;;;;;;32.10;6.47;;;7.90;99.90;;;;;;5099308;27;20046;-85
2022/01/14 13:25:07;;;;;;;32.10;6.03;;;7.90;99.90;;;;;;5132772;27;20047;-84